Time;durP1;ratioP1;P1;durP2;ratioP2;P2;SDS_P1;SDS_P2;PMS_P1;PMS_P2;Temp;Humidity;BMP_temperature;BMP_pressure;BME280_temperature;BME280_humidity;BME280_pressure;Samples;Min_cycle;Max_cycle;Signal;HPM_P1;HPM_P2
2023/07/03 00:00:16;;;;;;;1.58;0.68;;;15.00;98.40;;;;;;4983352;28;20428;-75
2023/07/03 00:02:45;;;;;;;2.13;0.87;;;15.00;98.60;;;;;;4983083;28;20330;-74
2023/07/03 00:05:12;;;;;;;3.83;1.40;;;15.00;98.90;;;;;;4995991;28;20140;-75
2023/07/03 00:07:39;;;;;;;1.67;0.73;;;15.00;99.20;;;;;;4951038;28;20045;-75
2023/07/03 00:10:06;;;;;;;3.45;1.30;;;15.00;99.30;;;;;;4982638;28;20073;-74
2023/07/03 00:12:33;;;;;;;3.25;1.23;;;15.00;99.70;;;;;;4968234;28;20607;-74
2023/07/03 00:15:00;;;;;;;2.60;1.00;;;14.90;99.70;;;;;;4970711;28;20726;-74
2023/07/03 00:17:27;;;;;;;2.08;0.90;;;15.00;99.90;;;;;;4971447;28;20062;-74
2023/07/03 00:19:54;;;;;;;1.83;0.90;;;14.90;99.90;;;;;;4970341;28;20133;-73
2023/07/03 00:22:21;;;;;;;1.75;0.68;;;15.00;99.90;;;;;;5004902;28;20045;-73
2023/07/03 00:24:48;;;;;;;2.47;0.85;;;15.00;99.90;;;;;;5004152;28;20524;-73
2023/07/03 00:27:15;;;;;;;2.75;1.10;;;15.00;99.90;;;;;;5004105;28;20109;-74
2023/07/03 00:29:41;;;;;;;2.60;1.10;;;15.00;99.90;;;;;;5004463;28;20092;-74
2023/07/03 00:32:09;;;;;;;3.25;1.17;;;14.90;99.90;;;;;;4970979;28;20061;-74
2023/07/03 00:34:36;;;;;;;2.42;1.15;;;14.90;99.90;;;;;;5004694;28;20493;-74
2023/07/03 00:37:03;;;;;;;2.53;0.85;;;15.00;99.90;;;;;;5003833;28;20363;-74
2023/07/03 00:39:29;;;;;;;4.07;1.17;;;15.00;99.90;;;;;;4954498;28;20057;-73
2023/07/03 00:41:57;;;;;;;1.85;0.95;;;14.90;99.90;;;;;;5003847;28;20042;-74
2023/07/03 00:44:24;;;;;;;2.20;1.15;;;14.90;99.90;;;;;;4971187;28;20050;-74
2023/07/03 00:46:51;;;;;;;3.50;1.17;;;14.90;99.90;;;;;;4986703;28;20046;-74
2023/07/03 00:49:19;;;;;;;2.17;0.95;;;14.90;99.90;;;;;;4970687;28;20409;-74
2023/07/03 00:51:48;;;;;;;1.75;0.70;;;14.90;99.90;;;;;;5000544;28;20173;-74
2023/07/03 00:54:15;;;;;;;3.53;0.90;;;14.90;99.90;;;;;;4986899;28;20153;-74
2023/07/03 00:56:41;;;;;;;2.28;0.82;;;14.90;99.90;;;;;;4985316;28;20749;-74
2023/07/03 00:59:08;;;;;;;2.58;1.05;;;14.90;99.90;;;;;;5004221;28;20054;-75
2023/07/03 01:01:37;;;;;;;2.47;0.88;;;14.90;99.90;;;;;;5003525;28;20104;-74
2023/07/03 01:04:09;;;;;;;1.88;0.90;;;15.00;99.90;;;;;;4986169;28;20108;-74
2023/07/03 01:06:44;;;;;;;2.88;1.17;;;15.00;99.90;;;;;;4985066;28;20046;-73
2023/07/03 01:09:12;;;;;;;1.60;0.80;;;15.00;99.90;;;;;;4971515;28;20135;-73
2023/07/03 01:11:38;;;;;;;2.30;1.02;;;15.00;99.90;;;;;;4969320;28;20048;-74
2023/07/03 01:14:05;;;;;;;3.45;1.20;;;15.00;99.90;;;;;;4970524;28;20042;-74
2023/07/03 01:16:32;;;;;;;4.78;1.42;;;15.00;99.90;;;;;;5003941;28;20046;-74
2023/07/03 01:18:59;;;;;;;5.45;1.60;;;14.90;99.90;;;;;;4970441;28;20137;-74
2023/07/03 01:21:32;;;;;;;5.03;2.08;;;14.90;99.90;;;;;;4969741;28;20120;-74
2023/07/03 01:24:04;;;;;;;1.92;0.90;;;14.90;99.90;;;;;;4970299;28;20054;-74
2023/07/03 01:26:31;;;;;;;1.67;0.90;;;15.00;99.90;;;;;;4954000;28;20058;-74
2023/07/03 01:28:58;;;;;;;2.47;0.75;;;14.90;99.90;;;;;;4987025;28;20076;-74
2023/07/03 01:31:26;;;;;;;2.38;0.98;;;14.90;99.90;;;;;;4967041;28;20057;-74
2023/07/03 01:33:53;;;;;;;2.40;0.90;;;14.90;99.90;;;;;;4968573;28;20050;-75
2023/07/03 01:36:20;;;;;;;3.42;1.25;;;14.90;99.90;;;;;;4978886;28;20046;-75
2023/07/03 01:38:46;;;;;;;2.63;0.82;;;14.90;99.90;;;;;;4970935;28;20105;-75
2023/07/03 01:41:14;;;;;;;3.78;1.20;;;14.90;99.90;;;;;;4989605;28;20058;-74
2023/07/03 01:43:41;;;;;;;2.60;1.20;;;14.80;99.90;;;;;;4954087;28;20141;-75
2023/07/03 01:46:08;;;;;;;2.20;0.85;;;14.80;99.90;;;;;;4989960;28;20184;-75
2023/07/03 01:48:35;;;;;;;2.13;1.00;;;14.70;99.90;;;;;;4990063;28;20050;-75
2023/07/03 01:51:03;;;;;;;2.50;1.30;;;14.70;99.90;;;;;;4989278;28;20894;-75
2023/07/03 01:53:43;;;;;;;4.00;1.23;;;14.60;99.90;;;;;;5002349;28;20046;-73
2023/07/03 01:56:22;;;;;;;3.13;1.25;;;14.60;99.90;;;;;;4980000;28;20489;-73
2023/07/03 01:58:58;;;;;;;2.67;1.10;;;14.50;99.90;;;;;;4990377;28;20046;-75
2023/07/03 02:01:58;;;;;;;3.10;1.20;;;14.50;99.90;;;;;;4993330;28;20552;-75
2023/07/03 02:04:30;;;;;;;1.85;1.05;;;14.50;99.90;;;;;;4989232;28;20049;-75
2023/07/03 02:06:57;;;;;;;2.97;1.10;;;14.40;99.90;;;;;;4993197;28;20147;-74
2023/07/03 02:09:24;;;;;;;2.53;1.20;;;14.30;99.90;;;;;;4989498;28;20046;-73
2023/07/03 02:11:51;;;;;;;2.03;1.02;;;14.30;99.90;;;;;;4982595;28;20049;-73
2023/07/03 02:14:18;;;;;;;2.20;0.90;;;14.30;99.90;;;;;;4974831;28;20050;-73
2023/07/03 02:16:47;;;;;;;2.05;0.90;;;14.30;99.90;;;;;;4989419;28;20053;-74
2023/07/03 02:19:15;;;;;;;2.22;0.88;;;14.20;99.90;;;;;;5007298;28;20409;-74
2023/07/03 02:21:45;;;;;;;3.40;1.23;;;14.20;99.90;;;;;;4991625;28;20120;-74
2023/07/03 02:24:12;;;;;;;1.98;0.70;;;14.20;99.90;;;;;;4992223;28;20469;-73
2023/07/03 02:26:41;;;;;;;1.00;0.55;;;14.10;99.90;;;;;;5005480;28;20127;-74
2023/07/03 02:29:08;;;;;;;2.30;0.98;;;14.10;99.90;;;;;;5007143;28;20488;-74
2023/07/03 02:31:35;;;;;;;4.13;1.30;;;14.10;99.90;;;;;;4988695;28;20064;-74
2023/07/03 02:34:02;;;;;;;2.92;1.10;;;14.10;99.90;;;;;;4973006;28;20061;-74
2023/07/03 02:36:29;;;;;;;3.85;1.38;;;14.00;99.90;;;;;;4987309;28;20089;-74
2023/07/03 02:38:57;;;;;;;2.33;0.93;;;14.00;99.90;;;;;;5006438;28;20057;-74
2023/07/03 02:41:24;;;;;;;1.90;0.85;;;14.00;99.90;;;;;;4987946;28;20066;-74
2023/07/03 02:43:50;;;;;;;2.72;0.80;;;13.90;99.90;;;;;;4988800;28;20141;-74
2023/07/03 02:46:17;;;;;;;2.63;0.90;;;13.90;99.90;;;;;;4988059;28;20659;-74
2023/07/03 02:48:45;;;;;;;2.92;1.02;;;13.90;99.90;;;;;;4956820;28;20056;-74
2023/07/03 02:51:11;;;;;;;2.05;0.80;;;13.90;99.90;;;;;;5005518;28;20054;-75
2023/07/03 02:53:38;;;;;;;2.97;1.40;;;13.80;99.90;;;;;;5005941;28;20078;-74
2023/07/03 02:56:05;;;;;;;2.17;0.90;;;13.80;99.90;;;;;;4969462;28;20054;-74
2023/07/03 02:58:32;;;;;;;2.38;0.70;;;13.80;99.90;;;;;;4999083;28;20046;-74
2023/07/03 03:00:59;;;;;;;2.05;1.00;;;13.80;99.90;;;;;;5004952;28;20054;-74
2023/07/03 03:03:26;;;;;;;2.50;0.95;;;13.70;99.90;;;;;;5005259;28;20058;-74
2023/07/03 03:05:55;;;;;;;2.20;0.80;;;13.70;99.90;;;;;;4983456;28;20119;-74
2023/07/03 03:08:22;;;;;;;1.83;0.70;;;13.70;99.90;;;;;;4988303;28;20058;-74
2023/07/03 03:10:53;;;;;;;1.10;0.70;;;13.70;99.90;;;;;;5005021;28;20108;-73
2023/07/03 03:13:20;;;;;;;1.77;0.80;;;13.70;99.90;;;;;;5004925;28;20065;-74
2023/07/03 03:15:47;;;;;;;1.63;0.77;;;13.70;99.90;;;;;;5005883;28;20111;-74
2023/07/03 03:18:13;;;;;;;1.65;0.68;;;13.70;99.90;;;;;;4987990;28;20141;-73
2023/07/03 03:20:40;;;;;;;2.88;0.70;;;13.60;99.90;;;;;;5004644;28;20092;-74
2023/07/03 03:23:09;;;;;;;2.60;0.90;;;13.60;99.90;;;;;;5005546;28;20397;-74
2023/07/03 03:25:36;;;;;;;1.95;0.73;;;13.60;99.90;;;;;;5004324;28;20416;-74
2023/07/03 03:28:03;;;;;;;2.28;0.65;;;13.60;99.90;;;;;;5004628;28;20052;-74
2023/07/03 03:30:30;;;;;;;1.77;0.82;;;13.60;99.90;;;;;;4985546;28;20038;-74
2023/07/03 03:32:57;;;;;;;1.80;0.77;;;13.60;99.90;;;;;;4998107;28;20608;-74
2023/07/03 03:35:24;;;;;;;2.40;0.70;;;13.60;99.90;;;;;;5004448;28;20556;-74
2023/07/03 03:37:50;;;;;;;5.50;1.10;;;13.60;99.90;;;;;;4971537;28;20054;-74
2023/07/03 03:40:17;;;;;;;1.75;0.80;;;13.50;99.90;;;;;;5004356;28;20081;-74
2023/07/03 03:42:44;;;;;;;3.80;1.23;;;13.60;99.90;;;;;;5003120;28;20105;-75
2023/07/03 03:45:10;;;;;;;2.42;1.02;;;13.50;99.90;;;;;;5004711;28;20058;-74
2023/07/03 03:47:37;;;;;;;1.02;0.60;;;13.50;99.90;;;;;;4992610;28;20098;-75
2023/07/03 03:50:05;;;;;;;2.05;0.73;;;13.50;99.90;;;;;;5005374;28;20058;-75
2023/07/03 03:52:31;;;;;;;3.42;1.25;;;13.50;99.90;;;;;;5004785;28;20085;-75
2023/07/03 03:54:58;;;;;;;1.85;0.75;;;13.50;99.90;;;;;;4986941;28;20061;-75
2023/07/03 03:57:25;;;;;;;2.55;1.02;;;13.50;99.90;;;;;;5004095;28;20045;-74
2023/07/03 03:59:52;;;;;;;1.50;0.90;;;13.50;99.90;;;;;;5004754;28;20046;-74
2023/07/03 04:02:20;;;;;;;2.45;1.00;;;13.50;99.90;;;;;;4977060;28;20061;-74
2023/07/03 04:04:47;;;;;;;3.00;1.00;;;13.50;99.90;;;;;;4986717;28;20054;-74
2023/07/03 04:07:13;;;;;;;2.50;0.70;;;13.40;99.90;;;;;;4987140;28;20161;-74
2023/07/03 04:09:40;;;;;;;1.77;0.80;;;13.40;99.90;;;;;;4970819;28;20056;-74
2023/07/03 04:12:07;;;;;;;1.92;1.00;;;13.50;99.90;;;;;;4984369;28;20054;-74
2023/07/03 04:14:34;;;;;;;1.58;0.70;;;13.40;99.90;;;;;;5005129;28;20045;-75
2023/07/03 04:17:01;;;;;;;6.55;1.42;;;13.40;99.90;;;;;;5003859;28;20049;-74
2023/07/03 04:19:28;;;;;;;1.98;0.80;;;13.50;99.90;;;;;;4986997;28;20096;-74
2023/07/03 04:21:55;;;;;;;3.40;1.17;;;13.40;99.90;;;;;;4974020;28;20054;-74
2023/07/03 04:24:22;;;;;;;2.08;0.82;;;13.50;99.90;;;;;;4971270;28;20050;-74
2023/07/03 04:26:48;;;;;;;1.88;1.00;;;13.40;99.90;;;;;;4985879;28;20561;-74
2023/07/03 04:29:15;;;;;;;2.83;1.30;;;13.50;99.90;;;;;;4971211;28;20046;-74
2023/07/03 04:31:42;;;;;;;2.65;1.08;;;13.50;99.90;;;;;;4987040;28;20632;-74
2023/07/03 04:34:08;;;;;;;3.40;0.98;;;13.50;99.90;;;;;;5004568;28;20100;-74
2023/07/03 04:36:35;;;;;;;3.15;1.00;;;13.50;99.90;;;;;;5003978;28;20054;-74
2023/07/03 04:39:02;;;;;;;3.33;0.90;;;13.50;99.90;;;;;;5004236;28;20100;-74
2023/07/03 04:41:29;;;;;;;1.90;0.80;;;13.50;99.90;;;;;;5002936;28;20088;-74
2023/07/03 04:43:58;;;;;;;1.75;0.77;;;13.60;99.90;;;;;;4995806;28;20104;-74
2023/07/03 04:46:26;;;;;;;1.77;0.75;;;13.60;99.90;;;;;;4955536;28;20053;-74
2023/07/03 04:49:00;;;;;;;2.38;1.00;;;13.60;99.90;;;;;;5004641;28;20160;-74
2023/07/03 04:51:30;;;;;;;1.75;0.70;;;13.70;99.90;;;;;;4985028;28;20052;-75
2023/07/03 04:53:58;;;;;;;1.63;0.60;;;13.70;99.90;;;;;;4994831;28;20401;-74
2023/07/03 04:56:26;;;;;;;2.58;1.02;;;13.70;99.90;;;;;;4969577;28;20489;-74
2023/07/03 04:58:53;;;;;;;1.55;0.70;;;13.80;99.90;;;;;;4971250;28;20129;-74
2023/07/03 05:01:20;;;;;;;2.60;1.00;;;13.90;99.90;;;;;;4990903;28;20127;-74
2023/07/03 05:03:47;;;;;;;2.35;1.27;;;13.90;99.90;;;;;;4999021;28;20058;-74
2023/07/03 05:06:14;;;;;;;1.77;0.82;;;14.00;99.90;;;;;;4986196;28;20062;-73
2023/07/03 05:08:41;;;;;;;2.25;1.02;;;14.00;99.90;;;;;;5004129;28;20104;-74
2023/07/03 05:11:07;;;;;;;2.28;1.05;;;14.00;99.90;;;;;;4969967;28;20112;-74
2023/07/03 05:13:34;;;;;;;2.67;1.05;;;14.00;99.90;;;;;;5003557;28;20045;-74
2023/07/03 05:16:01;;;;;;;2.30;0.98;;;14.10;99.90;;;;;;5002535;28;20053;-74
2023/07/03 05:18:28;;;;;;;3.05;1.00;;;14.20;99.90;;;;;;5002977;28;20049;-74
2023/07/03 05:20:55;;;;;;;2.35;1.08;;;14.30;99.90;;;;;;4993454;28;20084;-74
2023/07/03 05:23:22;;;;;;;2.15;1.00;;;14.40;99.90;;;;;;5003202;28;20129;-74
2023/07/03 05:25:48;;;;;;;3.00;1.20;;;14.40;99.90;;;;;;4991688;28;20112;-74
2023/07/03 05:28:16;;;;;;;2.17;0.80;;;14.50;99.90;;;;;;4969970;28;20050;-74
2023/07/03 05:30:42;;;;;;;1.88;0.75;;;14.50;99.90;;;;;;5003010;28;20058;-75
2023/07/03 05:33:10;;;;;;;2.80;1.20;;;14.60;99.90;;;;;;5002769;28;20123;-75
2023/07/03 05:35:38;;;;;;;2.72;1.23;;;14.50;99.90;;;;;;5002824;28;20160;-75
2023/07/03 05:38:16;;;;;;;2.20;1.00;;;14.50;99.90;;;;;;4987011;28;20049;-75
2023/07/03 05:40:44;;;;;;;4.38;1.23;;;14.50;99.90;;;;;;4985113;28;20057;-75
2023/07/03 05:43:11;;;;;;;3.55;0.90;;;14.50;99.90;;;;;;4969102;28;20557;-75
2023/07/03 05:45:38;;;;;;;2.08;1.05;;;14.50;99.90;;;;;;4968882;28;20046;-76
2023/07/03 05:48:05;;;;;;;1.80;0.88;;;14.50;99.90;;;;;;4985331;28;20084;-74
2023/07/03 05:50:32;;;;;;;2.40;0.93;;;14.50;99.90;;;;;;5002228;28;20120;-75
2023/07/03 05:52:58;;;;;;;2.97;1.25;;;14.60;99.90;;;;;;5002276;28;20437;-74
2023/07/03 05:55:25;;;;;;;3.22;0.82;;;14.60;99.90;;;;;;4968529;28;20124;-74
2023/07/03 05:57:52;;;;;;;1.85;0.90;;;14.60;99.90;;;;;;4968557;28;20064;-74
2023/07/03 06:00:19;;;;;;;2.28;0.90;;;14.60;99.90;;;;;;4985116;28;20050;-74
2023/07/03 06:02:46;;;;;;;2.88;1.48;;;14.60;99.90;;;;;;4960357;28;20441;-74
2023/07/03 06:05:14;;;;;;;3.97;1.52;;;14.60;99.90;;;;;;4964324;28;20046;-74
2023/07/03 06:07:40;;;;;;;2.38;1.08;;;14.60;99.90;;;;;;4984843;28;20599;-75
2023/07/03 06:10:07;;;;;;;2.75;1.17;;;14.70;99.90;;;;;;4981962;28;20058;-75
2023/07/03 06:12:34;;;;;;;2.53;1.17;;;14.70;99.90;;;;;;4977773;28;20085;-75
2023/07/03 06:15:01;;;;;;;2.55;1.27;;;14.70;99.90;;;;;;4967844;28;20055;-75
2023/07/03 06:17:28;;;;;;;4.57;1.42;;;14.70;99.90;;;;;;4969812;28;20055;-75
2023/07/03 06:19:55;;;;;;;2.67;0.82;;;14.70;99.90;;;;;;4964104;28;20065;-75
2023/07/03 06:22:22;;;;;;;3.38;1.20;;;14.80;99.90;;;;;;4968673;28;20104;-75
2023/07/03 06:24:49;;;;;;;2.70;1.20;;;14.80;99.90;;;;;;4947239;28;20133;-75
2023/07/03 06:27:16;;;;;;;2.78;1.25;;;14.80;99.90;;;;;;4968021;28;20086;-75
2023/07/03 06:29:43;;;;;;;4.43;1.35;;;14.90;99.90;;;;;;4982467;28;20058;-74
2023/07/03 06:32:10;;;;;;;2.22;1.02;;;14.90;99.90;;;;;;4974511;28;20082;-75
2023/07/03 06:34:37;;;;;;;3.33;1.00;;;14.90;99.90;;;;;;4985602;28;20682;-75
2023/07/03 06:37:05;;;;;;;2.83;1.02;;;15.00;99.90;;;;;;4964954;28;20141;-75
2023/07/03 06:39:32;;;;;;;4.22;1.48;;;15.00;99.90;;;;;;4964443;28;20046;-74
2023/07/03 06:42:01;;;;;;;2.47;1.17;;;15.00;99.90;;;;;;4966497;28;20047;-75
2023/07/03 06:44:28;;;;;;;2.13;0.85;;;15.10;99.90;;;;;;4968721;28;20050;-75
2023/07/03 06:46:54;;;;;;;2.03;0.90;;;15.10;99.90;;;;;;4970181;28;20046;-74
2023/07/03 06:49:24;;;;;;;1.38;0.80;;;15.20;99.90;;;;;;4967729;28;20050;-74
2023/07/03 06:51:51;;;;;;;2.28;1.00;;;15.20;99.90;;;;;;4955994;28;20157;-74
2023/07/03 06:54:18;;;;;;;2.08;0.80;;;15.30;99.90;;;;;;4977644;28;20042;-74
2023/07/03 06:56:45;;;;;;;3.17;0.93;;;15.40;99.90;;;;;;4974022;28;20050;-76
2023/07/03 06:59:12;;;;;;;2.20;1.20;;;15.50;99.90;;;;;;4977917;28;20046;-75
2023/07/03 07:01:39;;;;;;;1.48;0.90;;;15.50;99.90;;;;;;4966045;28;20635;-75
2023/07/03 07:04:06;;;;;;;2.08;0.98;;;15.60;99.90;;;;;;4999937;28;20513;-75
2023/07/03 07:06:33;;;;;;;2.75;0.82;;;15.60;99.90;;;;;;4965963;28;20389;-74
2023/07/03 07:08:59;;;;;;;2.78;1.38;;;15.60;99.90;;;;;;5002461;28;20108;-74
2023/07/03 07:11:28;;;;;;;2.28;0.98;;;15.60;99.90;;;;;;4954457;28;20115;-74
2023/07/03 07:13:55;;;;;;;1.63;0.68;;;15.70;99.90;;;;;;4954902;28;20042;-74
2023/07/03 07:16:24;;;;;;;1.65;0.77;;;15.70;99.90;;;;;;4987262;28;20671;-74
2023/07/03 07:18:55;;;;;;;3.58;1.10;;;15.80;99.90;;;;;;4955609;28;20111;-74
2023/07/03 07:21:22;;;;;;;3.97;1.13;;;15.80;99.90;;;;;;4970502;28;20057;-74
2023/07/03 07:23:51;;;;;;;2.00;0.85;;;15.80;99.90;;;;;;4967913;28;20523;-74
2023/07/03 07:26:18;;;;;;;2.45;0.75;;;15.80;99.90;;;;;;4983579;28;20049;-74
2023/07/03 07:28:45;;;;;;;1.20;0.73;;;15.90;99.90;;;;;;4968005;28;20046;-73
2023/07/03 07:31:18;;;;;;;3.50;0.93;;;16.00;99.90;;;;;;5003322;28;20457;-73
2023/07/03 07:33:45;;;;;;;2.38;0.80;;;16.10;99.90;;;;;;4954474;28;20505;-74
2023/07/03 07:36:13;;;;;;;1.88;0.65;;;16.20;99.90;;;;;;4973150;28;20061;-74
2023/07/03 07:38:40;;;;;;;1.88;0.80;;;16.20;99.90;;;;;;4973546;28;20042;-73
2023/07/03 07:41:07;;;;;;;5.45;1.65;;;16.20;99.90;;;;;;4991512;28;20115;-74
2023/07/03 07:43:33;;;;;;;1.92;0.80;;;16.20;99.90;;;;;;4988015;28;20086;-74
2023/07/03 07:46:00;;;;;;;1.60;1.17;;;16.20;99.90;;;;;;4987240;28;20137;-74
2023/07/03 07:48:27;;;;;;;4.10;1.27;;;16.30;99.90;;;;;;5003780;28;20042;-73
2023/07/03 07:50:57;;;;;;;1.98;1.20;;;16.40;99.90;;;;;;4955923;28;20045;-75
2023/07/03 07:53:26;;;;;;;2.35;0.85;;;16.30;99.90;;;;;;5003493;28;20595;-75
2023/07/03 07:55:55;;;;;;;2.60;0.93;;;16.40;99.90;;;;;;5003416;28;20057;-74
2023/07/03 07:58:22;;;;;;;1.40;0.73;;;16.40;99.90;;;;;;5003521;28;20085;-74
2023/07/03 08:00:51;;;;;;;1.92;0.60;;;16.50;99.90;;;;;;5004545;28;20057;-75
2023/07/03 08:03:18;;;;;;;1.17;0.70;;;16.60;99.90;;;;;;4966646;28;20126;-74
2023/07/03 08:05:45;;;;;;;1.23;0.60;;;16.60;99.50;;;;;;4985972;28;20046;-74
2023/07/03 08:08:12;;;;;;;1.30;0.57;;;16.70;99.10;;;;;;5004035;28;20053;-76
2023/07/03 08:10:40;;;;;;;1.63;0.60;;;16.80;98.10;;;;;;5003565;28;20482;-74
2023/07/03 08:13:07;;;;;;;2.10;0.80;;;16.90;98.10;;;;;;4954972;28;20058;-74
2023/07/03 08:15:34;;;;;;;2.42;0.90;;;16.80;98.30;;;;;;5004204;28;20292;-75
2023/07/03 08:18:01;;;;;;;1.00;0.70;;;16.90;97.50;;;;;;5004036;28;20054;-75
2023/07/03 08:20:28;;;;;;;1.58;0.63;;;16.90;96.90;;;;;;5003618;28;20068;-75
2023/07/03 08:22:55;;;;;;;2.42;0.88;;;17.00;96.60;;;;;;5002264;28;20054;-75
2023/07/03 08:25:21;;;;;;;3.00;1.02;;;17.10;96.40;;;;;;5000298;28;20056;-75
2023/07/03 08:27:48;;;;;;;2.53;0.80;;;17.30;96.40;;;;;;5000661;28;20192;-75
2023/07/03 08:30:15;;;;;;;3.45;1.13;;;17.40;96.20;;;;;;4970772;28;20452;-74
2023/07/03 08:32:43;;;;;;;2.30;1.00;;;17.60;96.10;;;;;;4953718;28;20089;-74
2023/07/03 08:35:10;;;;;;;1.25;0.60;;;17.70;95.80;;;;;;4971929;28;20049;-74
2023/07/03 08:37:40;;;;;;;2.58;1.17;;;17.90;95.10;;;;;;4990634;28;20144;-74
2023/07/03 08:40:08;;;;;;;2.28;0.90;;;18.00;95.10;;;;;;4973677;28;20115;-75
2023/07/03 08:42:45;;;;;;;1.45;0.77;;;18.00;95.20;;;;;;4989612;28;20046;-74
2023/07/03 08:45:13;;;;;;;3.00;0.80;;;18.00;95.20;;;;;;4991149;28;20104;-74
2023/07/03 08:47:40;;;;;;;2.13;0.80;;;18.20;95.30;;;;;;4970676;28;20157;-75
2023/07/03 08:50:07;;;;;;;1.95;0.82;;;18.10;95.30;;;;;;4986815;28;20633;-75
2023/07/03 08:52:41;;;;;;;3.50;1.00;;;18.20;95.10;;;;;;4969433;28;20055;-74
2023/07/03 08:55:09;;;;;;;2.55;0.77;;;18.30;95.10;;;;;;4966769;28;20112;-75
2023/07/03 08:57:36;;;;;;;3.65;1.30;;;18.30;95.20;;;;;;4987446;28;20054;-75
2023/07/03 09:00:11;;;;;;;2.05;0.98;;;18.30;95.10;;;;;;4974774;28;20053;-75
2023/07/03 09:02:45;;;;;;;3.45;1.20;;;18.30;95.30;;;;;;4974426;28;20450;-75
2023/07/03 09:05:22;;;;;;;2.05;0.90;;;18.30;95.30;;;;;;5006738;28;20054;-75
2023/07/03 09:07:55;;;;;;;1.95;1.00;;;18.20;95.60;;;;;;4974545;28;20486;-75
2023/07/03 09:10:36;;;;;;;2.28;0.80;;;18.10;95.60;;;;;;4970468;28;20126;-75
2023/07/03 09:13:18;;;;;;;1.67;0.80;;;18.20;95.70;;;;;;4985884;28;20100;-75
2023/07/03 09:15:54;;;;;;;1.48;0.70;;;18.40;95.70;;;;;;4991040;28;20054;-75
2023/07/03 09:18:24;;;;;;;1.70;0.82;;;18.50;95.90;;;;;;4974233;28;20437;-75
2023/07/03 09:20:51;;;;;;;1.40;0.80;;;18.60;95.90;;;;;;4989507;28;20136;-75
2023/07/03 09:23:21;;;;;;;2.08;0.88;;;18.90;96.10;;;;;;4971431;28;20485;-75
2023/07/03 09:26:11;;;;;;;2.03;0.95;;;18.90;95.80;;;;;;4985439;28;20076;-75
2023/07/03 09:28:39;;;;;;;3.70;1.10;;;18.80;95.90;;;;;;4989789;28;20105;-74
2023/07/03 09:31:05;;;;;;;2.22;0.95;;;18.80;96.10;;;;;;4953318;28;20058;-75
2023/07/03 09:33:32;;;;;;;2.28;0.90;;;18.70;96.30;;;;;;4981072;28;20046;-75
2023/07/03 09:36:23;;;;;;;2.95;1.20;;;18.60;96.70;;;;;;4985629;28;20096;-74
2023/07/03 09:38:50;;;;;;;3.10;1.00;;;18.50;96.40;;;;;;5004498;28;20057;-75
2023/07/03 09:41:43;;;;;;;1.90;1.00;;;18.50;96.60;;;;;;4957047;28;20081;-75
2023/07/03 09:44:11;;;;;;;1.77;1.00;;;18.70;96.50;;;;;;5002659;28;20554;-75
2023/07/03 09:46:39;;;;;;;2.40;1.30;;;18.90;96.70;;;;;;4985619;28;20056;-74
2023/07/03 09:49:13;;;;;;;1.80;0.90;;;19.00;96.60;;;;;;4970756;28;20050;-75
2023/07/03 09:51:40;;;;;;;1.52;0.90;;;19.10;96.40;;;;;;4956620;28;20077;-75
2023/07/03 09:54:17;;;;;;;3.25;1.08;;;19.20;96.70;;;;;;4973235;28;20371;-75
2023/07/03 09:56:44;;;;;;;1.33;0.90;;;19.30;96.70;;;;;;4973340;28;20129;-75
2023/07/03 09:59:14;;;;;;;1.88;0.80;;;19.20;96.70;;;;;;4987658;28;20053;-75
2023/07/03 10:01:41;;;;;;;1.45;0.80;;;19.20;97.00;;;;;;4966828;28;20061;-75
2023/07/03 10:04:15;;;;;;;2.75;0.77;;;19.30;96.90;;;;;;4995994;28;20089;-74
2023/07/03 10:06:59;;;;;;;2.28;1.10;;;19.40;96.90;;;;;;4970637;28;20059;-74
2023/07/03 10:09:30;;;;;;;2.00;1.02;;;19.30;97.10;;;;;;4989409;28;20050;-74
2023/07/03 10:12:04;;;;;;;;;;;19.40;96.90;;;;;;4989598;28;20054;-74
2023/07/03 10:14:38;;;;;;;2.20;1.23;;;19.40;96.70;;;;;;4988659;28;19973;-74
2023/07/03 10:17:12;;;;;;;2.95;1.10;;;19.60;96.90;;;;;;4969507;28;20047;-74
2023/07/03 10:19:47;;;;;;;2.45;1.42;;;19.60;96.80;;;;;;4985633;28;20050;-75
2023/07/03 10:22:14;;;;;;;2.08;0.90;;;19.70;97.10;;;;;;4985109;28;20077;-75
2023/07/03 10:24:41;;;;;;;2.25;1.08;;;19.70;97.10;;;;;;4972068;28;20100;-75
2023/07/03 10:27:08;;;;;;;2.65;1.05;;;19.80;97.40;;;;;;4969089;28;20070;-75
2023/07/03 10:29:46;;;;;;;1.73;0.93;;;20.10;97.40;;;;;;5005300;28;20057;-75
2023/07/03 10:32:14;;;;;;;2.88;1.33;;;20.20;96.90;;;;;;4969476;28;20077;-75
2023/07/03 10:34:48;;;;;;;3.85;1.73;;;20.20;96.70;;;;;;4984302;28;20055;-75
2023/07/03 10:37:17;;;;;;;2.40;1.27;;;20.10;96.90;;;;;;4988372;28;20046;-75
2023/07/03 10:40:10;;;;;;;3.33;1.55;;;19.90;97.30;;;;;;4972439;28;20448;-75
2023/07/03 10:42:45;;;;;;;2.80;1.33;;;19.70;97.30;;;;;;4982721;28;20053;-75
2023/07/03 10:45:13;;;;;;;2.15;1.00;;;19.70;97.30;;;;;;4972511;28;20072;-75
2023/07/03 10:47:46;;;;;;;2.60;1.10;;;19.70;97.50;;;;;;4972533;28;20053;-75
2023/07/03 10:50:14;;;;;;;2.55;1.30;;;20.00;97.40;;;;;;4973539;28;20061;-75
2023/07/03 10:52:48;;;;;;;3.47;1.50;;;20.20;96.70;;;;;;5005247;28;20092;-74
2023/07/03 10:55:29;;;;;;;2.72;0.90;;;20.30;96.70;;;;;;4972176;28;20046;-74
2023/07/03 10:58:19;;;;;;;2.55;1.23;;;20.40;96.30;;;;;;4953212;28;20351;-75
2023/07/03 11:01:10;;;;;;;1.38;1.00;;;20.40;96.40;;;;;;4969126;28;20061;-74
2023/07/03 11:03:42;;;;;;;3.88;1.17;;;20.40;96.70;;;;;;4970140;28;20054;-75
2023/07/03 11:06:16;;;;;;;1.88;1.00;;;20.20;96.30;;;;;;4985489;28;20053;-75
2023/07/03 11:08:48;;;;;;;2.05;1.13;;;20.10;96.60;;;;;;4987941;28;20099;-75
2023/07/03 11:11:35;;;;;;;4.30;1.20;;;20.10;96.50;;;;;;5004650;28;20096;-73
2023/07/03 11:14:08;;;;;;;1.38;0.90;;;20.00;96.30;;;;;;5004606;28;20050;-74
2023/07/03 11:16:44;;;;;;;3.55;1.17;;;20.40;96.60;;;;;;4972205;28;20053;-74
2023/07/03 11:19:53;;;;;;;1.80;1.38;;;20.70;96.30;;;;;;4987886;28;20564;-74
2023/07/03 11:22:28;;;;;;;1.92;1.10;;;20.80;96.20;;;;;;4974763;28;20046;-75
2023/07/03 11:25:17;;;;;;;1.80;1.10;;;21.00;95.30;;;;;;4964110;28;20069;-73
2023/07/03 11:28:11;;;;;;;1.88;1.10;;;21.00;94.90;;;;;;4980234;28;20101;-74
2023/07/03 11:30:37;;;;;;;;;;;20.90;95.30;;;;;;4985155;28;20050;-74
2023/07/03 11:33:05;;;;;;;2.83;1.10;;;20.90;95.50;;;;;;4986877;28;19929;-73
2023/07/03 11:35:32;;;;;;;2.38;1.02;;;20.90;95.50;;;;;;4986999;28;20409;-74
2023/07/03 11:38:06;;;;;;;3.22;1.13;;;20.80;95.50;;;;;;4972087;28;20089;-74
2023/07/03 11:40:37;;;;;;;2.03;0.95;;;20.50;95.70;;;;;;4971669;28;20548;-74
2023/07/03 11:43:29;;;;;;;1.45;0.93;;;20.50;95.80;;;;;;4986989;28;20093;-75
2023/07/03 11:45:56;;;;;;;2.30;1.27;;;20.50;95.50;;;;;;4987295;28;20144;-74
2023/07/03 11:48:47;;;;;;;4.07;1.10;;;20.70;95.70;;;;;;5004454;28;20092;-75
2023/07/03 11:51:16;;;;;;;2.75;0.98;;;21.30;95.60;;;;;;4975198;28;20128;-74
2023/07/03 11:53:48;;;;;;;2.03;0.98;;;21.40;95.20;;;;;;4966964;28;20046;-74
2023/07/03 11:56:41;;;;;;;2.65;1.10;;;21.60;94.60;;;;;;4965621;28;20105;-75
2023/07/03 11:59:23;;;;;;;2.38;0.90;;;21.10;94.60;;;;;;4967909;28;20054;-75
2023/07/03 12:01:50;;;;;;;1.65;1.00;;;20.90;95.20;;;;;;4994733;28;20089;-74
2023/07/03 12:04:43;;;;;;;2.75;1.30;;;21.30;95.00;;;;;;4986709;28;20513;-75
2023/07/03 12:07:18;;;;;;;1.85;1.08;;;22.00;94.70;;;;;;4987595;28;20053;-74
2023/07/03 12:09:46;;;;;;;1.95;1.10;;;22.00;94.10;;;;;;4986211;28;20092;-74
2023/07/03 12:12:14;;;;;;;2.33;1.30;;;21.90;93.60;;;;;;4986952;28;20077;-75
2023/07/03 12:14:42;;;;;;;3.13;1.30;;;21.90;93.40;;;;;;4966924;28;20498;-75
2023/07/03 12:17:28;;;;;;;2.40;1.33;;;21.90;93.50;;;;;;4997996;28;20072;-75
2023/07/03 12:20:12;;;;;;;2.17;1.40;;;22.50;92.80;;;;;;4983302;28;20136;-75
2023/07/03 12:22:41;;;;;;;3.08;1.38;;;22.90;92.10;;;;;;4951499;28;20430;-76
2023/07/03 12:25:09;;;;;;;1.85;1.08;;;23.20;91.70;;;;;;4963239;28;20643;-75
2023/07/03 12:27:37;;;;;;;1.95;1.27;;;23.60;91.40;;;;;;4983491;28;20046;-75
2023/07/03 12:30:09;;;;;;;2.67;1.20;;;23.40;91.50;;;;;;4986821;28;20074;-75
2023/07/03 12:32:36;;;;;;;2.42;1.63;;;23.30;91.80;;;;;;4987824;28;20108;-75
2023/07/03 12:35:19;;;;;;;2.67;1.48;;;23.00;91.50;;;;;;5003676;28;20216;-76
2023/07/03 12:37:48;;;;;;;1.50;1.17;;;23.20;92.10;;;;;;5003670;28;20533;-75
2023/07/03 12:40:16;;;;;;;2.90;1.42;;;23.60;91.00;;;;;;4986280;28;20054;-76
2023/07/03 12:42:47;;;;;;;1.75;1.10;;;24.10;91.00;;;;;;4970803;28;20521;-75
2023/07/03 12:45:15;;;;;;;1.92;1.10;;;24.70;91.00;;;;;;4950963;28;20054;-75
2023/07/03 12:47:41;;;;;;;2.83;1.10;;;24.80;90.30;;;;;;4986747;28;20124;-75
2023/07/03 12:50:13;;;;;;;1.70;1.23;;;24.60;90.80;;;;;;4986177;28;20433;-75
2023/07/03 12:52:39;;;;;;;2.60;1.42;;;25.00;90.30;;;;;;4970269;28;20065;-76
2023/07/03 12:55:06;;;;;;;2.17;1.40;;;25.50;88.90;;;;;;4981971;28;20607;-75
2023/07/03 12:57:41;;;;;;;1.92;1.27;;;25.80;86.80;;;;;;4968407;28;20046;-76
2023/07/03 13:00:14;;;;;;;2.45;1.40;;;25.70;86.70;;;;;;5004494;28;20061;-76